sensor_id;sensor_type;location;lat;lon;timestamp;P1;durP1;ratioP1;P2;durP2;ratioP2
20324;SDS011;10320;49.482;11.256;2024-02-23T00:01:48;0.50;;;0.50;;
20324;SDS011;10320;49.482;11.256;2024-02-23T00:04:14;0.73;;;0.50;;
20324;SDS011;10320;49.482;11.256;2024-02-23T00:06:41;0.70;;;0.60;;
20324;SDS011;10320;49.482;11.256;2024-02-23T00:09:07;1.13;;;0.60;;
20324;SDS011;10320;49.482;11.256;2024-02-23T00:11:33;0.87;;;0.33;;
20324;SDS011;10320;49.482;11.256;2024-02-23T00:14:04;1.43;;;0.70;;
20324;SDS011;10320;49.482;11.256;2024-02-23T00:16:30;1.10;;;0.70;;
20324;SDS011;10320;49.482;11.256;2024-02-23T00:18:56;1.57;;;0.70;;
20324;SDS011;10320;49.482;11.256;2024-02-23T00:21:22;0.60;;;0.60;;
20324;SDS011;10320;49.482;11.256;2024-02-23T00:23:48;0.87;;;0.40;;
20324;SDS011;10320;49.482;11.256;2024-02-23T00:26:14;0.70;;;0.60;;
20324;SDS011;10320;49.482;11.256;2024-02-23T00:28:40;0.83;;;0.30;;
20324;SDS011;10320;49.482;11.256;2024-02-23T00:31:07;0.53;;;0.50;;
20324;SDS011;10320;49.482;11.256;2024-02-23T00:33:33;0.50;;;0.50;;
20324;SDS011;10320;49.482;11.256;2024-02-23T00:35:59;0.70;;;0.60;;
20324;SDS011;10320;49.482;11.256;2024-02-23T00:38:25;1.00;;;0.50;;
20324;SDS011;10320;49.482;11.256;2024-02-23T00:40:51;0.73;;;0.53;;
20324;SDS011;10320;49.482;11.256;2024-02-23T00:43:19;0.70;;;0.50;;
20324;SDS011;10320;49.482;11.256;2024-02-23T00:45:45;0.30;;;0.30;;
20324;SDS011;10320;49.482;11.256;2024-02-23T00:48:11;0.50;;;0.50;;
20324;SDS011;10320;49.482;11.256;2024-02-23T00:50:38;1.57;;;0.53;;
20324;SDS011;10320;49.482;11.256;2024-02-23T00:53:04;0.53;;;0.30;;
20324;SDS011;10320;49.482;11.256;2024-02-23T00:55:30;1.53;;;0.43;;
20324;SDS011;10320;49.482;11.256;2024-02-23T00:57:56;0.30;;;0.30;;
20324;SDS011;10320;49.482;11.256;2024-02-23T01:00:23;1.10;;;0.30;;
20324;SDS011;10320;49.482;11.256;2024-02-23T01:02:50;0.50;;;0.40;;
20324;SDS011;10320;49.482;11.256;2024-02-23T01:05:16;0.23;;;0.10;;
20324;SDS011;10320;49.482;11.256;2024-02-23T01:07:42;0.40;;;0.30;;
20324;SDS011;10320;49.482;11.256;2024-02-23T01:10:08;1.17;;;0.60;;
20324;SDS011;10320;49.482;11.256;2024-02-23T01:12:35;1.00;;;0.50;;
20324;SDS011;10320;49.482;11.256;2024-02-23T01:15:01;0.20;;;0.20;;
20324;SDS011;10320;49.482;11.256;2024-02-23T01:17:27;0.50;;;0.40;;
20324;SDS011;10320;49.482;11.256;2024-02-23T01:19:53;1.50;;;0.23;;
20324;SDS011;10320;49.482;11.256;2024-02-23T01:22:19;0.43;;;0.20;;
20324;SDS011;10320;49.482;11.256;2024-02-23T01:24:45;0.93;;;0.40;;
20324;SDS011;10320;49.482;11.256;2024-02-23T01:27:11;0.63;;;0.43;;
20324;SDS011;10320;49.482;11.256;2024-02-23T01:29:37;0.60;;;0.50;;
20324;SDS011;10320;49.482;11.256;2024-02-23T01:32:03;0.63;;;0.50;;
20324;SDS011;10320;49.482;11.256;2024-02-23T01:34:29;0.60;;;0.50;;
20324;SDS011;10320;49.482;11.256;2024-02-23T01:36:55;0.20;;;0.20;;
20324;SDS011;10320;49.482;11.256;2024-02-23T01:39:21;0.60;;;0.20;;
20324;SDS011;10320;49.482;11.256;2024-02-23T01:41:47;0.43;;;0.30;;
20324;SDS011;10320;49.482;11.256;2024-02-23T01:44:13;0.17;;;0.17;;
20324;SDS011;10320;49.482;11.256;2024-02-23T01:46:40;0.60;;;0.60;;
20324;SDS011;10320;49.482;11.256;2024-02-23T01:49:06;0.70;;;0.50;;
20324;SDS011;10320;49.482;11.256;2024-02-23T01:51:33;0.77;;;0.60;;
20324;SDS011;10320;49.482;11.256;2024-02-23T01:53:59;1.17;;;0.70;;
20324;SDS011;10320;49.482;11.256;2024-02-23T01:56:26;2.07;;;1.00;;
20324;SDS011;10320;49.482;11.256;2024-02-23T01:58:52;2.10;;;1.10;;
20324;SDS011;10320;49.482;11.256;2024-02-23T02:01:19;0.77;;;0.57;;
20324;SDS011;10320;49.482;11.256;2024-02-23T02:03:45;0.70;;;0.60;;
20324;SDS011;10320;49.482;11.256;2024-02-23T02:06:11;0.73;;;0.50;;
20324;SDS011;10320;49.482;11.256;2024-02-23T02:08:37;1.57;;;0.83;;
20324;SDS011;10320;49.482;11.256;2024-02-23T02:11:03;1.33;;;0.80;;
20324;SDS011;10320;49.482;11.256;2024-02-23T02:13:29;1.03;;;0.50;;
20324;SDS011;10320;49.482;11.256;2024-02-23T02:16:02;0.73;;;0.70;;
20324;SDS011;10320;49.482;11.256;2024-02-23T02:18:28;0.77;;;0.50;;
20324;SDS011;10320;49.482;11.256;2024-02-23T02:20:56;3.03;;;1.87;;
20324;SDS011;10320;49.482;11.256;2024-02-23T02:23:22;0.93;;;0.70;;
20324;SDS011;10320;49.482;11.256;2024-02-23T02:25:55;2.03;;;1.00;;
20324;SDS011;10320;49.482;11.256;2024-02-23T02:28:22;3.17;;;1.60;;
20324;SDS011;10320;49.482;11.256;2024-02-23T02:30:48;1.80;;;1.33;;
20324;SDS011;10320;49.482;11.256;2024-02-23T02:33:15;0.63;;;0.50;;
20324;SDS011;10320;49.482;11.256;2024-02-23T02:35:41;0.67;;;0.67;;
20324;SDS011;10320;49.482;11.256;2024-02-23T02:38:07;0.87;;;0.40;;
20324;SDS011;10320;49.482;11.256;2024-02-23T02:40:33;0.83;;;0.67;;
20324;SDS011;10320;49.482;11.256;2024-02-23T02:42:59;2.93;;;1.53;;
20324;SDS011;10320;49.482;11.256;2024-02-23T02:45:25;2.10;;;0.67;;
20324;SDS011;10320;49.482;11.256;2024-02-23T02:47:51;0.77;;;0.60;;
20324;SDS011;10320;49.482;11.256;2024-02-23T02:50:17;1.73;;;0.50;;
20324;SDS011;10320;49.482;11.256;2024-02-23T02:52:43;0.40;;;0.40;;
20324;SDS011;10320;49.482;11.256;2024-02-23T02:55:09;2.33;;;0.70;;
20324;SDS011;10320;49.482;11.256;2024-02-23T02:57:35;2.60;;;1.07;;
20324;SDS011;10320;49.482;11.256;2024-02-23T03:00:02;2.73;;;1.20;;
20324;SDS011;10320;49.482;11.256;2024-02-23T03:02:30;1.00;;;0.40;;
20324;SDS011;10320;49.482;11.256;2024-02-23T03:04:56;0.60;;;0.50;;
20324;SDS011;10320;49.482;11.256;2024-02-23T03:07:22;1.23;;;0.60;;
20324;SDS011;10320;49.482;11.256;2024-02-23T03:09:48;0.40;;;0.40;;
20324;SDS011;10320;49.482;11.256;2024-02-23T03:12:15;1.27;;;0.40;;
20324;SDS011;10320;49.482;11.256;2024-02-23T03:14:42;0.90;;;0.50;;
20324;SDS011;10320;49.482;11.256;2024-02-23T03:17:08;0.93;;;0.70;;
20324;SDS011;10320;49.482;11.256;2024-02-23T03:19:34;0.67;;;0.50;;
20324;SDS011;10320;49.482;11.256;2024-02-23T03:22:00;0.63;;;0.50;;
20324;SDS011;10320;49.482;11.256;2024-02-23T03:24:26;1.03;;;0.53;;
20324;SDS011;10320;49.482;11.256;2024-02-23T03:26:52;1.57;;;0.60;;
20324;SDS011;10320;49.482;11.256;2024-02-23T03:29:19;0.87;;;0.73;;
20324;SDS011;10320;49.482;11.256;2024-02-23T03:31:45;1.20;;;0.63;;
20324;SDS011;10320;49.482;11.256;2024-02-23T03:34:11;0.60;;;0.60;;
20324;SDS011;10320;49.482;11.256;2024-02-23T03:36:38;3.20;;;0.80;;
20324;SDS011;10320;49.482;11.256;2024-02-23T03:39:04;0.80;;;0.80;;
20324;SDS011;10320;49.482;11.256;2024-02-23T03:41:30;1.27;;;0.50;;
20324;SDS011;10320;49.482;11.256;2024-02-23T03:43:56;1.53;;;0.60;;
20324;SDS011;10320;49.482;11.256;2024-02-23T03:46:23;1.00;;;0.60;;
20324;SDS011;10320;49.482;11.256;2024-02-23T03:48:49;1.27;;;0.50;;
20324;SDS011;10320;49.482;11.256;2024-02-23T03:51:16;0.80;;;0.50;;
20324;SDS011;10320;49.482;11.256;2024-02-23T03:53:42;2.17;;;0.80;;
20324;SDS011;10320;49.482;11.256;2024-02-23T03:56:09;0.97;;;0.80;;
20324;SDS011;10320;49.482;11.256;2024-02-23T03:58:35;2.90;;;0.80;;
20324;SDS011;10320;49.482;11.256;2024-02-23T04:01:01;1.97;;;0.60;;
20324;SDS011;10320;49.482;11.256;2024-02-23T04:03:26;1.93;;;0.70;;
20324;SDS011;10320;49.482;11.256;2024-02-23T04:05:52;2.40;;;0.80;;
20324;SDS011;10320;49.482;11.256;2024-02-23T04:08:18;1.80;;;0.90;;
20324;SDS011;10320;49.482;11.256;2024-02-23T04:10:45;0.93;;;0.50;;
20324;SDS011;10320;49.482;11.256;2024-02-23T04:13:12;2.83;;;1.10;;
20324;SDS011;10320;49.482;11.256;2024-02-23T04:15:39;2.67;;;0.80;;
20324;SDS011;10320;49.482;11.256;2024-02-23T04:18:05;1.37;;;0.77;;
20324;SDS011;10320;49.482;11.256;2024-02-23T04:20:31;2.40;;;0.73;;
20324;SDS011;10320;49.482;11.256;2024-02-23T04:22:58;2.23;;;0.80;;
20324;SDS011;10320;49.482;11.256;2024-02-23T04:25:23;1.23;;;0.73;;
20324;SDS011;10320;49.482;11.256;2024-02-23T04:27:50;1.43;;;0.90;;
20324;SDS011;10320;49.482;11.256;2024-02-23T04:30:16;2.10;;;0.70;;
20324;SDS011;10320;49.482;11.256;2024-02-23T04:32:42;1.50;;;0.80;;
20324;SDS011;10320;49.482;11.256;2024-02-23T04:35:09;1.97;;;0.80;;
20324;SDS011;10320;49.482;11.256;2024-02-23T04:37:35;2.47;;;0.70;;
20324;SDS011;10320;49.482;11.256;2024-02-23T04:40:01;1.80;;;0.90;;
20324;SDS011;10320;49.482;11.256;2024-02-23T04:42:29;1.43;;;0.90;;
20324;SDS011;10320;49.482;11.256;2024-02-23T04:44:55;1.43;;;0.63;;
20324;SDS011;10320;49.482;11.256;2024-02-23T04:47:21;2.27;;;0.80;;
20324;SDS011;10320;49.482;11.256;2024-02-23T04:49:47;2.70;;;0.73;;
20324;SDS011;10320;49.482;11.256;2024-02-23T04:52:14;2.30;;;0.80;;
20324;SDS011;10320;49.482;11.256;2024-02-23T04:54:40;1.77;;;0.90;;
20324;SDS011;10320;49.482;11.256;2024-02-23T04:57:06;2.13;;;0.80;;
20324;SDS011;10320;49.482;11.256;2024-02-23T04:59:32;1.20;;;0.47;;
20324;SDS011;10320;49.482;11.256;2024-02-23T05:01:58;1.53;;;0.60;;
20324;SDS011;10320;49.482;11.256;2024-02-23T05:04:24;1.67;;;0.70;;
20324;SDS011;10320;49.482;11.256;2024-02-23T05:06:51;2.17;;;0.70;;
20324;SDS011;10320;49.482;11.256;2024-02-23T05:09:17;2.97;;;0.83;;
20324;SDS011;10320;49.482;11.256;2024-02-23T05:11:43;2.83;;;0.63;;
20324;SDS011;10320;49.482;11.256;2024-02-23T05:14:11;1.87;;;0.90;;
20324;SDS011;10320;49.482;11.256;2024-02-23T05:16:37;2.57;;;1.10;;
20324;SDS011;10320;49.482;11.256;2024-02-23T05:19:03;1.70;;;0.80;;
20324;SDS011;10320;49.482;11.256;2024-02-23T05:21:29;1.80;;;0.70;;
20324;SDS011;10320;49.482;11.256;2024-02-23T05:23:56;2.37;;;0.80;;
20324;SDS011;10320;49.482;11.256;2024-02-23T05:26:22;1.87;;;1.10;;
20324;SDS011;10320;49.482;11.256;2024-02-23T05:28:48;3.53;;;0.67;;
20324;SDS011;10320;49.482;11.256;2024-02-23T05:31:14;2.20;;;0.77;;
20324;SDS011;10320;49.482;11.256;2024-02-23T05:33:40;2.43;;;0.63;;
20324;SDS011;10320;49.482;11.256;2024-02-23T05:36:06;1.37;;;0.60;;
20324;SDS011;10320;49.482;11.256;2024-02-23T05:38:33;3.10;;;0.80;;
20324;SDS011;10320;49.482;11.256;2024-02-23T05:40:59;2.37;;;0.77;;
20324;SDS011;10320;49.482;11.256;2024-02-23T05:43:25;2.13;;;0.70;;
20324;SDS011;10320;49.482;11.256;2024-02-23T05:45:51;1.07;;;0.63;;
20324;SDS011;10320;49.482;11.256;2024-02-23T05:48:19;2.80;;;0.80;;
20324;SDS011;10320;49.482;11.256;2024-02-23T05:50:45;2.10;;;0.90;;
20324;SDS011;10320;49.482;11.256;2024-02-23T05:53:11;2.53;;;0.80;;
20324;SDS011;10320;49.482;11.256;2024-02-23T05:55:37;2.83;;;0.90;;
20324;SDS011;10320;49.482;11.256;2024-02-23T05:58:03;3.00;;;0.80;;
20324;SDS011;10320;49.482;11.256;2024-02-23T06:00:30;3.90;;;1.10;;
20324;SDS011;10320;49.482;11.256;2024-02-23T06:02:56;2.10;;;0.80;;
20324;SDS011;10320;49.482;11.256;2024-02-23T06:05:22;4.43;;;1.17;;
20324;SDS011;10320;49.482;11.256;2024-02-23T06:07:48;2.43;;;0.67;;
20324;SDS011;10320;49.482;11.256;2024-02-23T06:10:14;3.90;;;1.00;;
20324;SDS011;10320;49.482;11.256;2024-02-23T06:12:40;2.43;;;0.90;;
20324;SDS011;10320;49.482;11.256;2024-02-23T06:15:08;1.70;;;0.80;;
20324;SDS011;10320;49.482;11.256;2024-02-23T06:17:34;2.13;;;0.90;;
20324;SDS011;10320;49.482;11.256;2024-02-23T06:20:00;2.83;;;0.80;;
20324;SDS011;10320;49.482;11.256;2024-02-23T06:22:26;2.80;;;0.93;;
20324;SDS011;10320;49.482;11.256;2024-02-23T06:24:52;1.67;;;0.70;;
20324;SDS011;10320;49.482;11.256;2024-02-23T06:27:18;1.50;;;0.57;;
20324;SDS011;10320;49.482;11.256;2024-02-23T06:29:44;2.47;;;1.00;;
20324;SDS011;10320;49.482;11.256;2024-02-23T06:32:10;2.90;;;1.17;;
20324;SDS011;10320;49.482;11.256;2024-02-23T06:34:36;1.60;;;0.90;;
20324;SDS011;10320;49.482;11.256;2024-02-23T06:37:02;3.23;;;1.30;;
20324;SDS011;10320;49.482;11.256;2024-02-23T06:39:28;4.03;;;1.13;;
20324;SDS011;10320;49.482;11.256;2024-02-23T06:41:54;2.80;;;1.57;;
20324;SDS011;10320;49.482;11.256;2024-02-23T06:44:20;2.73;;;0.90;;
20324;SDS011;10320;49.482;11.256;2024-02-23T06:46:46;1.50;;;0.93;;
20324;SDS011;10320;49.482;11.256;2024-02-23T06:49:12;1.77;;;1.00;;
20324;SDS011;10320;49.482;11.256;2024-02-23T06:51:38;2.27;;;1.20;;
20324;SDS011;10320;49.482;11.256;2024-02-23T06:54:05;2.67;;;1.43;;
20324;SDS011;10320;49.482;11.256;2024-02-23T06:56:33;5.03;;;1.80;;
20324;SDS011;10320;49.482;11.256;2024-02-23T06:58:59;3.87;;;1.70;;
20324;SDS011;10320;49.482;11.256;2024-02-23T07:01:25;10.47;;;5.87;;
20324;SDS011;10320;49.482;11.256;2024-02-23T07:03:52;12.00;;;9.47;;
20324;SDS011;10320;49.482;11.256;2024-02-23T07:06:18;23.63;;;15.23;;
20324;SDS011;10320;49.482;11.256;2024-02-23T07:08:44;14.43;;;9.50;;
20324;SDS011;10320;49.482;11.256;2024-02-23T07:11:11;5.73;;;5.13;;
20324;SDS011;10320;49.482;11.256;2024-02-23T07:13:37;3.70;;;3.40;;
20324;SDS011;10320;49.482;11.256;2024-02-23T07:16:03;3.10;;;1.30;;
20324;SDS011;10320;49.482;11.256;2024-02-23T07:18:29;3.93;;;1.80;;
20324;SDS011;10320;49.482;11.256;2024-02-23T07:20:55;2.37;;;0.90;;
20324;SDS011;10320;49.482;11.256;2024-02-23T07:23:21;1.33;;;0.90;;
20324;SDS011;10320;49.482;11.256;2024-02-23T07:25:47;3.30;;;0.73;;
20324;SDS011;10320;49.482;11.256;2024-02-23T07:28:15;1.60;;;0.77;;
20324;SDS011;10320;49.482;11.256;2024-02-23T07:30:44;3.47;;;0.90;;
20324;SDS011;10320;49.482;11.256;2024-02-23T07:33:11;2.07;;;0.77;;
20324;SDS011;10320;49.482;11.256;2024-02-23T07:35:37;2.07;;;0.77;;
20324;SDS011;10320;49.482;11.256;2024-02-23T07:38:03;2.50;;;1.40;;
20324;SDS011;10320;49.482;11.256;2024-02-23T07:40:29;1.83;;;0.90;;
20324;SDS011;10320;49.482;11.256;2024-02-23T07:42:57;2.77;;;0.80;;
20324;SDS011;10320;49.482;11.256;2024-02-23T07:45:23;6.10;;;1.20;;
20324;SDS011;10320;49.482;11.256;2024-02-23T07:47:49;2.50;;;0.90;;
20324;SDS011;10320;49.482;11.256;2024-02-23T07:50:15;1.23;;;0.70;;
20324;SDS011;10320;49.482;11.256;2024-02-23T07:52:41;1.60;;;0.80;;
20324;SDS011;10320;49.482;11.256;2024-02-23T07:55:07;1.17;;;0.87;;
20324;SDS011;10320;49.482;11.256;2024-02-23T07:57:33;0.67;;;0.50;;
20324;SDS011;10320;49.482;11.256;2024-02-23T07:59:59;1.97;;;0.60;;
20324;SDS011;10320;49.482;11.256;2024-02-23T08:02:25;0.87;;;0.60;;
20324;SDS011;10320;49.482;11.256;2024-02-23T08:04:51;1.57;;;0.90;;
20324;SDS011;10320;49.482;11.256;2024-02-23T08:07:17;2.03;;;0.80;;
20324;SDS011;10320;49.482;11.256;2024-02-23T08:09:43;1.13;;;0.70;;
20324;SDS011;10320;49.482;11.256;2024-02-23T08:12:10;0.70;;;0.60;;
20324;SDS011;10320;49.482;11.256;2024-02-23T08:14:38;1.43;;;0.90;;
20324;SDS011;10320;49.482;11.256;2024-02-23T08:17:04;1.00;;;0.90;;
20324;SDS011;10320;49.482;11.256;2024-02-23T08:19:30;1.30;;;0.70;;
20324;SDS011;10320;49.482;11.256;2024-02-23T08:21:56;1.23;;;0.57;;
20324;SDS011;10320;49.482;11.256;2024-02-23T08:24:22;2.73;;;0.60;;
20324;SDS011;10320;49.482;11.256;2024-02-23T08:26:48;1.20;;;0.70;;
20324;SDS011;10320;49.482;11.256;2024-02-23T08:29:14;1.67;;;0.73;;
20324;SDS011;10320;49.482;11.256;2024-02-23T08:31:41;4.80;;;1.50;;
20324;SDS011;10320;49.482;11.256;2024-02-23T08:34:07;2.07;;;1.00;;
20324;SDS011;10320;49.482;11.256;2024-02-23T08:36:33;2.47;;;0.70;;
20324;SDS011;10320;49.482;11.256;2024-02-23T08:38:59;1.27;;;0.67;;
20324;SDS011;10320;49.482;11.256;2024-02-23T08:41:25;1.63;;;0.70;;
20324;SDS011;10320;49.482;11.256;2024-02-23T08:43:51;3.00;;;0.80;;
20324;SDS011;10320;49.482;11.256;2024-02-23T08:46:17;1.60;;;0.80;;
20324;SDS011;10320;49.482;11.256;2024-02-23T08:48:44;1.73;;;0.80;;
20324;SDS011;10320;49.482;11.256;2024-02-23T08:51:10;1.20;;;0.60;;
20324;SDS011;10320;49.482;11.256;2024-02-23T08:53:36;1.70;;;0.60;;
20324;SDS011;10320;49.482;11.256;2024-02-23T08:56:02;2.20;;;0.70;;
20324;SDS011;10320;49.482;11.256;2024-02-23T08:58:28;1.60;;;0.83;;
20324;SDS011;10320;49.482;11.256;2024-02-23T09:00:54;2.80;;;0.80;;
20324;SDS011;10320;49.482;11.256;2024-02-23T09:03:20;1.77;;;0.70;;
20324;SDS011;10320;49.482;11.256;2024-02-23T09:05:46;2.37;;;1.00;;
20324;SDS011;10320;49.482;11.256;2024-02-23T09:08:13;1.70;;;0.77;;
20324;SDS011;10320;49.482;11.256;2024-02-23T09:10:39;1.53;;;0.80;;
20324;SDS011;10320;49.482;11.256;2024-02-23T09:13:05;2.53;;;0.97;;
20324;SDS011;10320;49.482;11.256;2024-02-23T09:15:31;0.93;;;0.70;;
20324;SDS011;10320;49.482;11.256;2024-02-23T09:17:57;1.63;;;0.73;;
20324;SDS011;10320;49.482;11.256;2024-02-23T09:20:23;1.17;;;0.60;;
20324;SDS011;10320;49.482;11.256;2024-02-23T09:22:49;1.20;;;0.70;;
20324;SDS011;10320;49.482;11.256;2024-02-23T09:25:15;1.43;;;0.50;;
20324;SDS011;10320;49.482;11.256;2024-02-23T09:27:41;1.97;;;1.00;;
20324;SDS011;10320;49.482;11.256;2024-02-23T09:30:11;1.10;;;0.60;;
20324;SDS011;10320;49.482;11.256;2024-02-23T09:32:37;1.83;;;0.50;;
20324;SDS011;10320;49.482;11.256;2024-02-23T09:35:03;1.17;;;0.77;;
20324;SDS011;10320;49.482;11.256;2024-02-23T09:37:31;0.70;;;0.63;;
20324;SDS011;10320;49.482;11.256;2024-02-23T09:39:57;1.30;;;0.63;;
20324;SDS011;10320;49.482;11.256;2024-02-23T09:42:23;1.00;;;0.80;;
20324;SDS011;10320;49.482;11.256;2024-02-23T09:44:51;0.93;;;0.73;;
20324;SDS011;10320;49.482;11.256;2024-02-23T09:47:21;2.43;;;0.77;;
20324;SDS011;10320;49.482;11.256;2024-02-23T09:49:47;1.50;;;1.10;;
20324;SDS011;10320;49.482;11.256;2024-02-23T09:52:15;1.27;;;0.83;;
20324;SDS011;10320;49.482;11.256;2024-02-23T09:54:41;1.30;;;0.70;;
20324;SDS011;10320;49.482;11.256;2024-02-23T09:57:07;1.90;;;0.80;;
20324;SDS011;10320;49.482;11.256;2024-02-23T09:59:34;0.70;;;0.50;;
20324;SDS011;10320;49.482;11.256;2024-02-23T10:02:01;0.87;;;0.60;;
20324;SDS011;10320;49.482;11.256;2024-02-23T10:04:28;3.13;;;0.80;;
20324;SDS011;10320;49.482;11.256;2024-02-23T10:06:56;2.03;;;0.90;;
20324;SDS011;10320;49.482;11.256;2024-02-23T10:09:23;1.27;;;0.90;;
20324;SDS011;10320;49.482;11.256;2024-02-23T10:11:53;1.17;;;0.67;;
20324;SDS011;10320;49.482;11.256;2024-02-23T10:14:19;1.20;;;0.70;;
20324;SDS011;10320;49.482;11.256;2024-02-23T10:16:46;2.00;;;0.90;;
20324;SDS011;10320;49.482;11.256;2024-02-23T10:19:12;1.70;;;0.70;;
20324;SDS011;10320;49.482;11.256;2024-02-23T10:21:38;1.53;;;0.70;;
20324;SDS011;10320;49.482;11.256;2024-02-23T10:24:07;0.47;;;0.43;;
20324;SDS011;10320;49.482;11.256;2024-02-23T10:26:33;1.30;;;0.67;;
20324;SDS011;10320;49.482;11.256;2024-02-23T10:28:59;1.27;;;0.73;;
20324;SDS011;10320;49.482;11.256;2024-02-23T10:31:25;0.90;;;0.60;;
20324;SDS011;10320;49.482;11.256;2024-02-23T10:33:51;1.40;;;0.80;;
20324;SDS011;10320;49.482;11.256;2024-02-23T10:36:18;1.40;;;0.60;;
20324;SDS011;10320;49.482;11.256;2024-02-23T10:38:45;1.20;;;0.70;;
20324;SDS011;10320;49.482;11.256;2024-02-23T10:41:12;1.13;;;0.60;;
20324;SDS011;10320;49.482;11.256;2024-02-23T10:43:45;3.20;;;0.70;;
20324;SDS011;10320;49.482;11.256;2024-02-23T10:46:12;0.73;;;0.40;;
20324;SDS011;10320;49.482;11.256;2024-02-23T10:48:41;4.20;;;0.97;;
20324;SDS011;10320;49.482;11.256;2024-02-23T10:51:07;1.07;;;0.80;;
20324;SDS011;10320;49.482;11.256;2024-02-23T10:53:34;0.93;;;0.67;;
20324;SDS011;10320;49.482;11.256;2024-02-23T10:56:00;2.13;;;0.63;;
20324;SDS011;10320;49.482;11.256;2024-02-23T10:58:26;1.30;;;0.90;;
20324;SDS011;10320;49.482;11.256;2024-02-23T11:00:53;3.17;;;0.80;;
20324;SDS011;10320;49.482;11.256;2024-02-23T11:03:25;1.90;;;0.83;;
20324;SDS011;10320;49.482;11.256;2024-02-23T11:05:53;1.73;;;0.70;;
20324;SDS011;10320;49.482;11.256;2024-02-23T11:08:19;1.40;;;1.00;;
20324;SDS011;10320;49.482;11.256;2024-02-23T11:10:49;0.67;;;0.50;;
20324;SDS011;10320;49.482;11.256;2024-02-23T11:13:18;1.23;;;0.67;;
20324;SDS011;10320;49.482;11.256;2024-02-23T11:15:44;1.70;;;0.83;;
20324;SDS011;10320;49.482;11.256;2024-02-23T11:18:23;1.43;;;0.90;;
20324;SDS011;10320;49.482;11.256;2024-02-23T11:20:56;2.13;;;0.67;;
20324;SDS011;10320;49.482;11.256;2024-02-23T11:23:24;1.07;;;0.70;;
20324;SDS011;10320;49.482;11.256;2024-02-23T11:31:15;1.20;;;0.60;;
20324;SDS011;10320;49.482;11.256;2024-02-23T11:33:49;1.40;;;0.50;;
20324;SDS011;10320;49.482;11.256;2024-02-23T11:36:22;1.00;;;0.60;;
20324;SDS011;10320;49.482;11.256;2024-02-23T11:38:49;1.27;;;0.67;;
20324;SDS011;10320;49.482;11.256;2024-02-23T11:41:17;1.73;;;0.80;;
20324;SDS011;10320;49.482;11.256;2024-02-23T11:43:43;1.23;;;0.60;;
20324;SDS011;10320;49.482;11.256;2024-02-23T11:46:11;1.10;;;0.50;;
20324;SDS011;10320;49.482;11.256;2024-02-23T11:48:37;2.33;;;0.90;;
20324;SDS011;10320;49.482;11.256;2024-02-23T11:51:03;0.93;;;0.60;;
20324;SDS011;10320;49.482;11.256;2024-02-23T11:53:29;1.40;;;0.90;;
20324;SDS011;10320;49.482;11.256;2024-02-23T11:55:57;0.90;;;0.60;;
20324;SDS011;10320;49.482;11.256;2024-02-23T11:58:23;1.00;;;0.60;;
20324;SDS011;10320;49.482;11.256;2024-02-23T12:00:50;2.00;;;0.83;;
20324;SDS011;10320;49.482;11.256;2024-02-23T12:03:16;0.90;;;0.50;;
20324;SDS011;10320;49.482;11.256;2024-02-23T12:05:42;1.77;;;0.63;;
20324;SDS011;10320;49.482;11.256;2024-02-23T12:08:08;1.33;;;0.70;;
20324;SDS011;10320;49.482;11.256;2024-02-23T12:10:35;1.97;;;0.80;;
20324;SDS011;10320;49.482;11.256;2024-02-23T12:13:01;1.83;;;0.70;;
20324;SDS011;10320;49.482;11.256;2024-02-23T12:15:28;1.03;;;0.60;;
20324;SDS011;10320;49.482;11.256;2024-02-23T12:17:54;1.80;;;0.63;;
20324;SDS011;10320;49.482;11.256;2024-02-23T12:20:23;1.47;;;0.60;;
20324;SDS011;10320;49.482;11.256;2024-02-23T12:22:50;1.53;;;0.67;;
20324;SDS011;10320;49.482;11.256;2024-02-23T12:25:16;0.90;;;0.70;;
20324;SDS011;10320;49.482;11.256;2024-02-23T12:27:43;1.00;;;0.57;;
20324;SDS011;10320;49.482;11.256;2024-02-23T12:30:15;1.33;;;0.60;;
20324;SDS011;10320;49.482;11.256;2024-02-23T12:32:42;0.60;;;0.60;;
20324;SDS011;10320;49.482;11.256;2024-02-23T12:35:10;0.73;;;0.53;;
20324;SDS011;10320;49.482;11.256;2024-02-23T12:37:37;1.93;;;0.73;;
20324;SDS011;10320;49.482;11.256;2024-02-23T12:40:04;1.97;;;1.40;;
20324;SDS011;10320;49.482;11.256;2024-02-23T12:42:30;2.20;;;1.40;;
20324;SDS011;10320;49.482;11.256;2024-02-23T12:44:56;1.43;;;0.67;;
20324;SDS011;10320;49.482;11.256;2024-02-23T12:47:22;1.30;;;0.93;;
20324;SDS011;10320;49.482;11.256;2024-02-23T12:49:49;1.00;;;0.90;;
20324;SDS011;10320;49.482;11.256;2024-02-23T12:52:15;0.70;;;0.70;;
20324;SDS011;10320;49.482;11.256;2024-02-23T12:54:41;0.60;;;0.60;;
20324;SDS011;10320;49.482;11.256;2024-02-23T12:57:07;1.23;;;0.80;;
20324;SDS011;10320;49.482;11.256;2024-02-23T12:59:33;2.10;;;0.77;;
20324;SDS011;10320;49.482;11.256;2024-02-23T13:01:59;0.53;;;0.53;;
20324;SDS011;10320;49.482;11.256;2024-02-23T13:04:25;0.70;;;0.60;;
20324;SDS011;10320;49.482;11.256;2024-02-23T13:06:51;1.30;;;0.70;;
20324;SDS011;10320;49.482;11.256;2024-02-23T13:09:19;0.40;;;0.40;;
20324;SDS011;10320;49.482;11.256;2024-02-23T13:11:45;0.80;;;0.70;;
20324;SDS011;10320;49.482;11.256;2024-02-23T13:14:12;0.83;;;0.63;;
20324;SDS011;10320;49.482;11.256;2024-02-23T13:16:38;2.20;;;0.70;;
20324;SDS011;10320;49.482;11.256;2024-02-23T13:19:05;1.03;;;0.60;;
20324;SDS011;10320;49.482;11.256;2024-02-23T13:21:31;2.83;;;1.00;;
20324;SDS011;10320;49.482;11.256;2024-02-23T13:23:58;3.87;;;0.97;;
20324;SDS011;10320;49.482;11.256;2024-02-23T13:26:24;1.40;;;0.70;;
20324;SDS011;10320;49.482;11.256;2024-02-23T13:28:50;0.93;;;0.80;;
20324;SDS011;10320;49.482;11.256;2024-02-23T13:31:16;1.90;;;0.73;;
20324;SDS011;10320;49.482;11.256;2024-02-23T13:33:42;1.13;;;0.73;;
20324;SDS011;10320;49.482;11.256;2024-02-23T13:36:10;2.13;;;0.63;;
20324;SDS011;10320;49.482;11.256;2024-02-23T13:38:36;0.67;;;0.50;;
20324;SDS011;10320;49.482;11.256;2024-02-23T13:41:04;1.03;;;0.70;;
20324;SDS011;10320;49.482;11.256;2024-02-23T13:43:31;1.83;;;0.80;;
20324;SDS011;10320;49.482;11.256;2024-02-23T13:45:58;1.07;;;0.80;;
20324;SDS011;10320;49.482;11.256;2024-02-23T13:48:24;2.17;;;0.70;;
20324;SDS011;10320;49.482;11.256;2024-02-23T13:50:50;0.83;;;0.70;;
20324;SDS011;10320;49.482;11.256;2024-02-23T13:53:16;1.27;;;0.77;;
20324;SDS011;10320;49.482;11.256;2024-02-23T13:55:42;0.80;;;0.60;;
20324;SDS011;10320;49.482;11.256;2024-02-23T13:58:09;0.80;;;0.70;;
20324;SDS011;10320;49.482;11.256;2024-02-23T14:00:35;1.17;;;0.80;;
20324;SDS011;10320;49.482;11.256;2024-02-23T14:03:01;2.63;;;0.73;;
20324;SDS011;10320;49.482;11.256;2024-02-23T14:05:27;1.13;;;0.60;;
20324;SDS011;10320;49.482;11.256;2024-02-23T14:07:53;1.90;;;0.80;;
20324;SDS011;10320;49.482;11.256;2024-02-23T14:10:19;1.80;;;0.80;;
20324;SDS011;10320;49.482;11.256;2024-02-23T14:12:45;1.00;;;0.63;;
20324;SDS011;10320;49.482;11.256;2024-02-23T14:15:11;2.07;;;0.80;;
20324;SDS011;10320;49.482;11.256;2024-02-23T14:17:37;1.10;;;0.50;;
20324;SDS011;10320;49.482;11.256;2024-02-23T14:20:03;1.60;;;0.70;;
20324;SDS011;10320;49.482;11.256;2024-02-23T14:22:31;1.50;;;0.60;;
20324;SDS011;10320;49.482;11.256;2024-02-23T14:24:57;0.90;;;0.70;;
20324;SDS011;10320;49.482;11.256;2024-02-23T14:27:23;0.90;;;0.67;;
20324;SDS011;10320;49.482;11.256;2024-02-23T14:29:49;1.20;;;0.80;;
20324;SDS011;10320;49.482;11.256;2024-02-23T14:32:17;0.57;;;0.57;;
20324;SDS011;10320;49.482;11.256;2024-02-23T14:34:43;0.70;;;0.70;;